Terminal Aerodrome Forecast
Issued by NWS Twin Cities, MN

Home | Current Version | Previous Version | Text Only | Print | Product List | Glossary Off
Versions: 1 2 3 4 5 6 7 8 9 10 11 12 13 14 15 16 17 18 19 20 21 22 23 24 25

384
FTUS43 KMPX 180330 AAA
TAFMSP
TAF AMD
KMSP 180330Z 1804/1906 04005KT P6SM BKN150
     FM181200 04009KT P6SM OVC030
     FM181800 36012G18KT 2SM -SN BR OVC008
     FM190000 36008KT P6SM BKN150=

USA.gov is the U.S. government's official web portal to all federal, state and local government web resources and services.